Hauptseite
METAR-TAF:

METAR-TAF

Flughäfen :

Militärflugplatz Alcantarilla

Murcia, Spanien

Breite: 37-57N, Länge: 001-14W, Höhe: 75 m

Beobachtung

Neuester Wetterbericht von vor 28 Minuten, um 14:00 UTC
Wind 5 kt aus Ost, variierte zwischen Nordost und Südost
Temperatur 17°C
Luftfeuchtigkeit 59%
Luftdruck 1024 hPa
Sichtweite 10 km oder mehr
Leicht bewölkt in der Höhe von 3500 ft

METAR: LERI 201400Z 10005KT 050V140 9999 FEW035 17/09 Q1024 NOSIG

Zeit: 15:28 (14:28 UTC)

Prognose

Neuester Wetterbericht von vor 3 Stunden und 28 Minuten, um 11:00 UTC
Gültige Prognose vom 20 um 12 UTC bis 20 um 21 UTC
Wind 5 kt aus Südost
Sichtweite 10 km oder mehr
Leicht bewölkt in der Höhe von 2000 ft

TAF: LERI 201100Z 2012/2021 13005KT 9999 FEW020

Wetterbeobachtungen und Prognosen von mehr als 4000 Flughäfen (METAR und TAF Bericht).

Die verfügbaren Stationen werden durch gelbe und rote Markierungen auf der Karte dargestellt.

Führen Sie die Maus auf sie, um den Namen der Station zu sehen.

Darauf klicken, um die Beobachtung von Wetterbeobachtungen und Prognosen zu sehen.

Um die Karte zu ändern : klicken Sie auf den grünen Tasten mit einem schwarzen Kreuz Zum Vergrößern, auf den grünen Button mit einem Gedankenstrich zu verkleinern, oder auf die grünen Pfeile für benachbarte Karten.


METAR-TAF: